createdAt,value
2019-04-21T00:02:32.278Z,19.50
2019-04-21T00:05:16.330Z,19.50
2019-04-21T00:07:46.449Z,19.50
2019-04-21T00:10:22.492Z,19.50
2019-04-21T00:12:45.929Z,19.50
2019-04-21T00:15:09.792Z,19.50
2019-04-21T00:17:30.303Z,19.50
2019-04-21T00:20:12.721Z,19.50
2019-04-21T00:22:44.056Z,19.50
2019-04-21T00:25:20.673Z,19.50
2019-04-21T00:27:51.625Z,19.50
2019-04-21T00:30:26.984Z,19.50
2019-04-21T00:32:49.985Z,19.50
2019-04-21T00:35:11.776Z,19.50
2019-04-21T00:38:15.145Z,19.50
2019-04-21T00:40:30.307Z,19.50
2019-04-21T00:43:01.051Z,19.40
2019-04-21T00:45:25.393Z,19.40
2019-04-21T00:48:08.300Z,19.40
2019-04-21T00:50:40.772Z,19.40
2019-04-21T00:53:10.449Z,19.40
2019-04-21T00:55:53.464Z,19.40
2019-04-21T00:58:26.827Z,19.40
2019-04-21T01:00:53.393Z,19.40
2019-04-21T01:03:26.774Z,19.40
2019-04-21T01:06:03.269Z,19.40
2019-04-21T01:08:21.723Z,19.30
2019-04-21T01:10:48.986Z,19.40
2019-04-21T01:13:27.308Z,19.30
2019-04-21T01:16:17.398Z,19.30
2019-04-21T01:18:28.931Z,19.40
2019-04-21T01:20:35.413Z,19.30
2019-04-21T01:23:04.730Z,19.30
2019-04-21T01:25:41.522Z,19.40
2019-04-21T01:28:18.849Z,19.30
2019-04-21T01:31:01.100Z,19.30
2019-04-21T01:33:34.896Z,19.30
2019-04-21T01:35:55.576Z,19.40
2019-04-21T01:38:34.245Z,19.40
2019-04-21T01:41:03.514Z,19.30
2019-04-21T01:43:27.578Z,19.30
2019-04-21T01:46:00.905Z,19.30
2019-04-21T01:48:24.687Z,19.30
2019-04-21T01:50:55.486Z,19.30
2019-04-21T01:53:42.513Z,19.30
2019-04-21T01:56:35.256Z,19.40
2019-04-21T01:58:53.929Z,19.30
2019-04-21T02:01:39.099Z,19.30
2019-04-21T02:04:11.719Z,19.30
2019-04-21T02:06:39.293Z,19.30
2019-04-21T02:09:09.798Z,19.30
2019-04-21T02:11:43.239Z,19.30
2019-04-21T02:14:20.762Z,19.30
2019-04-21T02:16:49.598Z,19.30
2019-04-21T02:19:11.420Z,19.30
2019-04-21T02:21:39.364Z,19.20
2019-04-21T02:24:23.587Z,19.20
2019-04-21T02:26:45.706Z,19.20
2019-04-21T02:29:22.979Z,19.20
2019-04-21T02:32:07.920Z,19.20
2019-04-21T02:34:32.231Z,19.20
2019-04-21T02:37:18.899Z,19.20
2019-04-21T02:39:25.026Z,19.20
2019-04-21T02:42:02.052Z,19.20
2019-04-21T02:44:37.549Z,19.20
2019-04-21T02:46:58.786Z,19.30
2019-04-21T02:49:45.214Z,19.20
2019-04-21T02:52:11.671Z,19.30
2019-04-21T02:59:50.399Z,19.20
2019-04-21T03:02:40.720Z,19.10
2019-04-21T03:05:20.353Z,19.20
2019-04-21T03:07:50.310Z,19.20
2019-04-21T03:10:20.553Z,19.20
2019-04-21T03:12:45.703Z,19.10
2019-04-21T03:20:19.249Z,19.10
2019-04-21T03:25:33.081Z,19.10
2019-04-21T03:27:57.275Z,19.20
2019-04-21T03:30:29.328Z,19.20
2019-04-21T03:35:58.324Z,19.10
2019-04-21T03:37:54.532Z,19.10
2019-04-21T03:40:22.299Z,19.10
2019-04-21T03:45:31.096Z,19.10
2019-04-21T03:47:55.268Z,19.10
2019-04-21T03:50:27.351Z,19.10
2019-04-21T03:58:19.486Z,19.10
2019-04-21T04:01:02.403Z,19.10
2019-04-21T04:03:58.083Z,19.00
2019-04-21T04:06:25.680Z,19.00
2019-04-21T04:14:19.659Z,19.00
2019-04-21T04:16:50.380Z,18.90
2019-04-21T04:19:12.482Z,19.10
2019-04-21T04:21:47.875Z,19.00
2019-04-21T04:24:16.982Z,19.00
2019-04-21T04:29:22.438Z,19.00
2019-04-21T04:36:57.034Z,19.00
2019-04-21T04:42:21.296Z,19.00
2019-04-21T04:44:54.290Z,19.00
2019-04-21T04:47:18.278Z,19.00
2019-04-21T04:54:53.029Z,19.00
2019-04-21T04:57:28.400Z,19.00
2019-04-21T05:04:55.184Z,19.00
2019-04-21T05:07:21.262Z,19.00
2019-04-21T05:09:57.682Z,19.00
2019-04-21T05:12:24.893Z,19.00
2019-04-21T05:14:55.214Z,19.00
2019-04-21T05:17:30.867Z,19.00
2019-04-21T05:22:22.148Z,19.00
2019-04-21T05:24:44.214Z,19.00
2019-04-21T05:27:50.021Z,19.00
2019-04-21T05:31:09.090Z,19.00
2019-04-21T05:33:38.338Z,19.00
2019-04-21T05:36:15.787Z,19.00
2019-04-21T05:39:02.572Z,19.10
2019-04-21T05:41:26.568Z,19.10
2019-04-21T05:44:06.330Z,19.20
2019-04-21T05:46:42.518Z,19.20
2019-04-21T05:49:09.303Z,19.30
2019-04-21T05:51:55.982Z,19.30
2019-04-21T05:54:49.976Z,19.40
2019-04-21T05:57:02.413Z,19.50
2019-04-21T05:59:33.865Z,19.50
2019-04-21T06:02:15.282Z,19.60
2019-04-21T06:04:56.593Z,19.60
2019-04-21T06:07:21.531Z,19.60
2019-04-21T06:09:45.230Z,19.70
2019-04-21T06:12:18.298Z,19.60
2019-04-21T06:14:50.819Z,19.70
2019-04-21T06:17:19.153Z,19.80
2019-04-21T06:19:52.671Z,19.70
2019-04-21T06:22:14.928Z,19.70
2019-04-21T06:25:18.667Z,19.80
2019-04-21T06:27:22.929Z,19.80
2019-04-21T06:29:50.271Z,19.80
2019-04-21T06:40:15.431Z,19.80
2019-04-21T06:42:27.039Z,19.90
2019-04-21T06:47:42.340Z,19.90
2019-04-21T06:50:02.136Z,19.90
2019-04-21T06:52:52.143Z,20.00
2019-04-21T06:55:20.468Z,20.00
2019-04-21T06:57:40.288Z,20.00
2019-04-21T07:00:06.435Z,20.00
2019-04-21T07:05:07.368Z,20.10
2019-04-21T07:07:43.270Z,20.20
2019-04-21T07:10:12.356Z,20.30
2019-04-21T07:12:39.277Z,20.30
2019-04-21T07:15:09.972Z,20.30
2019-04-21T07:17:38.957Z,20.40
2019-04-21T07:20:28.357Z,20.40
2019-04-21T07:22:51.184Z,20.40
2019-04-21T07:25:22.573Z,20.30
2019-04-21T07:30:22.789Z,20.40
2019-04-21T07:32:57.399Z,20.50
2019-04-21T07:35:22.189Z,20.50
2019-04-21T07:37:54.111Z,20.50
2019-04-21T07:40:22.259Z,20.50
2019-04-21T07:42:47.771Z,20.60
2019-04-21T07:45:19.527Z,20.60
2019-04-21T07:50:52.083Z,20.60
2019-04-21T07:53:30.329Z,20.60
2019-04-21T07:55:36.137Z,20.60
2019-04-21T07:58:26.509Z,20.60
2019-04-21T08:01:12.406Z,20.70
2019-04-21T08:03:28.446Z,20.70
2019-04-21T08:06:06.600Z,20.70
2019-04-21T08:08:26.615Z,20.60
2019-04-21T08:10:59.739Z,20.60
2019-04-21T08:13:42.926Z,20.60
2019-04-21T08:16:04.559Z,20.70
2019-04-21T08:18:33.688Z,20.80
2019-04-21T08:21:04.346Z,20.80
2019-04-21T08:23:39.171Z,20.80
2019-04-21T08:28:42.717Z,20.80
2019-04-21T08:31:12.785Z,20.80
2019-04-21T08:36:18.975Z,20.80
2019-04-21T08:38:41.285Z,20.80
2019-04-21T08:41:12.441Z,20.80
2019-04-21T08:46:20.235Z,20.90
2019-04-21T08:48:52.724Z,20.90
2019-04-21T08:51:34.029Z,20.90
2019-04-21T08:53:53.469Z,20.80
2019-04-21T08:56:40.144Z,20.90
2019-04-21T08:59:38.816Z,20.90
2019-04-21T09:02:23.499Z,20.90
2019-04-21T09:04:54.133Z,20.90
2019-04-21T09:07:26.943Z,20.90
2019-04-21T09:09:54.699Z,20.90
2019-04-21T09:12:25.270Z,20.90
2019-04-21T09:14:54.249Z,21.00
2019-04-21T09:17:22.421Z,21.00
2019-04-21T09:19:57.897Z,21.00
2019-04-21T09:22:29.887Z,21.00
2019-04-21T09:24:59.650Z,20.90
2019-04-21T09:27:30.711Z,21.00
2019-04-21T09:29:49.927Z,21.00
2019-04-21T09:32:21.323Z,21.00
2019-04-21T09:34:47.454Z,21.00
2019-04-21T09:37:28.835Z,21.00
2019-04-21T09:39:51.870Z,21.00
2019-04-21T09:42:21.430Z,21.00
2019-04-21T09:44:55.229Z,21.10
2019-04-21T09:47:24.927Z,21.10
2019-04-21T09:49:52.801Z,21.00
2019-04-21T09:52:26.619Z,21.10
2019-04-21T09:55:03.439Z,21.10
2019-04-21T09:57:36.653Z,21.00
2019-04-21T10:00:03.646Z,21.00
2019-04-21T10:02:34.206Z,21.00
2019-04-21T10:04:57.367Z,21.10
2019-04-21T10:07:34.578Z,21.00
2019-04-21T10:09:58.245Z,21.00
2019-04-21T10:12:28.684Z,21.10
2019-04-21T10:14:58.105Z,21.10
2019-04-21T10:17:35.040Z,21.10
2019-04-21T10:20:05.297Z,21.10
2019-04-21T10:22:35.093Z,21.10
2019-04-21T10:25:04.963Z,21.00
2019-04-21T10:27:34.888Z,21.00
2019-04-21T10:30:05.731Z,21.00
2019-04-21T10:32:36.336Z,21.10
2019-04-21T10:35:07.340Z,21.10
2019-04-21T10:37:47.344Z,21.10
2019-04-21T10:40:09.646Z,21.10
2019-04-21T10:42:40.306Z,21.10
2019-04-21T10:45:10.823Z,21.00
2019-04-21T10:47:41.039Z,21.10
2019-04-21T10:50:10.936Z,21.10
2019-04-21T10:52:58.714Z,21.20
2019-04-21T10:55:44.699Z,21.10
2019-04-21T10:58:11.876Z,21.10
2019-04-21T11:00:43.989Z,21.10
2019-04-21T11:03:40.190Z,21.10
2019-04-21T11:06:10.623Z,21.30
2019-04-21T11:08:45.035Z,21.20
2019-04-21T11:11:12.054Z,21.40
2019-04-21T11:13:41.354Z,21.50
2019-04-21T11:16:11.039Z,21.50
2019-04-21T11:18:40.438Z,21.60
2019-04-21T11:21:10.818Z,21.80
2019-04-21T11:23:40.659Z,21.80
2019-04-21T11:26:10.007Z,21.80
2019-04-21T11:28:40.741Z,22.00
2019-04-21T11:31:11.102Z,21.90
2019-04-21T11:33:40.776Z,22.10
2019-04-21T11:36:11.074Z,22.00
2019-04-21T11:39:02.333Z,22.10
2019-04-21T11:41:16.356Z,22.00
2019-04-21T11:43:45.737Z,22.20
2019-04-21T11:46:16.194Z,22.20
2019-04-21T11:48:46.167Z,22.20
2019-04-21T11:51:15.481Z,22.20
2019-04-21T11:53:44.866Z,22.20
2019-04-21T11:56:14.739Z,22.20
2019-04-21T11:58:44.036Z,22.30
2019-04-21T12:01:13.916Z,22.30
2019-04-21T12:03:43.375Z,22.30
2019-04-21T12:06:13.387Z,22.30
2019-04-21T12:08:46.392Z,22.20
2019-04-21T12:11:14.023Z,22.30
2019-04-21T12:13:43.651Z,22.30
2019-04-21T12:16:13.288Z,22.30
2019-04-21T12:18:42.981Z,22.30
2019-04-21T12:21:13.585Z,22.30
2019-04-21T12:23:43.091Z,22.30
2019-04-21T12:26:13.787Z,22.40
2019-04-21T12:28:43.996Z,22.30
2019-04-21T12:31:29.689Z,22.30
2019-04-21T12:34:01.015Z,22.10
2019-04-21T12:36:31.640Z,22.00
2019-04-21T12:39:03.286Z,22.30
2019-04-21T12:41:32.887Z,22.00
2019-04-21T12:44:02.604Z,22.10
2019-04-21T12:46:31.920Z,22.10
2019-04-21T12:49:02.158Z,22.10
2019-04-21T12:51:31.365Z,22.00
2019-04-21T12:54:01.636Z,22.40
2019-04-21T12:56:31.645Z,22.30
2019-04-21T12:59:01.562Z,22.10
2019-04-21T13:01:30.886Z,22.50
2019-04-21T13:04:00.218Z,22.30
2019-04-21T13:06:29.724Z,22.50
2019-04-21T13:09:04.922Z,22.50
2019-04-21T13:11:30.996Z,22.40
2019-04-21T13:14:00.241Z,22.30
2019-04-21T13:16:29.676Z,22.40
2019-04-21T13:18:59.550Z,22.50
2019-04-21T13:21:29.904Z,22.40
2019-04-21T13:24:00.876Z,22.60
2019-04-21T13:26:40.285Z,22.70
2019-04-21T13:29:02.693Z,22.70
2019-04-21T13:31:38.411Z,22.50
2019-04-21T13:34:11.180Z,22.30
2019-04-21T13:36:41.410Z,22.60
2019-04-21T13:40:01.527Z,22.40
2019-04-21T13:42:17.480Z,22.30
2019-04-21T13:44:39.226Z,22.50
2019-04-21T13:47:08.684Z,22.30
2019-04-21T13:49:41.478Z,22.30
2019-04-21T13:52:11.069Z,22.30
2019-04-21T13:54:45.532Z,22.40
2019-04-21T13:57:16.670Z,22.40
2019-04-21T14:19:48.915Z,22.80
2019-04-21T14:25:32.132Z,22.70
2019-04-21T14:28:20.406Z,22.70
2019-04-21T14:31:10.381Z,22.60
2019-04-21T14:33:59.703Z,22.60
2019-04-21T14:39:59.480Z,22.50
2019-04-21T14:42:34.080Z,22.50
2019-04-21T14:45:34.709Z,22.50
2019-04-21T14:48:35.026Z,22.50
2019-04-21T14:51:36.885Z,22.40
2019-04-21T14:57:23.523Z,22.40
2019-04-21T15:00:04.933Z,22.40
2019-04-21T15:02:45.802Z,22.40
2019-04-21T15:05:27.308Z,22.40
2019-04-21T15:08:09.111Z,22.40
2019-04-21T15:10:49.887Z,22.40
2019-04-21T15:13:32.287Z,22.40
2019-04-21T15:16:13.402Z,22.40
2019-04-21T15:18:54.769Z,22.40
2019-04-21T15:21:35.511Z,22.40
2019-04-21T15:24:16.452Z,22.30
2019-04-21T15:33:20.534Z,22.20
2019-04-21T15:36:02.943Z,22.20
2019-04-21T15:38:45.678Z,22.20
2019-04-21T15:47:51.901Z,22.00
2019-04-21T15:50:33.121Z,22.00
2019-04-21T15:53:34.025Z,21.90
2019-04-21T15:56:20.913Z,21.80
2019-04-21T15:59:28.304Z,21.80
2019-04-21T16:02:30.392Z,21.70
2019-04-21T16:05:12.992Z,21.60
2019-04-21T16:07:54.229Z,21.60
2019-04-21T16:10:43.680Z,21.20
2019-04-21T16:13:19.353Z,21.50
2019-04-21T16:16:02.293Z,21.50
2019-04-21T16:18:43.226Z,21.50
2019-04-21T16:24:33.669Z,21.40
2019-04-21T16:27:15.249Z,21.40
2019-04-21T16:29:57.646Z,21.30
2019-04-21T16:32:39.134Z,21.30
2019-04-21T16:35:21.736Z,20.90
2019-04-21T16:38:04.141Z,21.30
2019-04-21T16:50:29.818Z,21.10
2019-04-21T16:56:39.979Z,21.20
2019-04-21T16:59:40.465Z,21.20
2019-04-21T17:02:40.819Z,21.10
2019-04-21T17:05:40.734Z,21.10
2019-04-21T17:11:43.128Z,21.10
2019-04-21T17:14:57.142Z,21.20
2019-04-21T17:29:46.585Z,21.10
2019-04-21T17:35:33.238Z,21.00
2019-04-21T17:38:14.496Z,21.10
2019-04-21T17:44:12.815Z,21.00
2019-04-21T17:47:44.654Z,21.00
2019-04-21T17:51:03.449Z,21.00
2019-04-21T18:00:25.594Z,21.00
2019-04-21T18:03:21.156Z,21.00
2019-04-21T18:09:31.557Z,21.00
2019-04-21T18:12:13.616Z,21.00
2019-04-21T18:24:48.010Z,20.90
2019-04-21T18:31:18.479Z,20.80
2019-04-21T18:40:15.133Z,20.90
2019-04-21T19:14:35.507Z,20.70
2019-04-21T19:23:41.294Z,20.70
2019-04-21T19:29:23.925Z,20.70
2019-04-21T19:32:05.780Z,20.60
2019-04-21T19:34:29.495Z,20.60
2019-04-21T19:37:14.408Z,20.70
2019-04-21T19:40:03.573Z,20.70
2019-04-21T19:42:45.331Z,20.60
2019-04-21T19:45:32.185Z,20.60
2019-04-21T19:48:13.576Z,20.60
2019-04-21T19:57:16.668Z,20.60
2019-04-21T20:00:01.362Z,20.20
2019-04-21T20:02:40.833Z,20.60
2019-04-21T20:05:47.424Z,20.60
2019-04-21T20:09:00.734Z,20.50
2019-04-21T20:14:52.202Z,20.50
2019-04-21T20:17:31.200Z,20.50
2019-04-21T20:23:05.169Z,20.50
2019-04-21T20:26:08.089Z,20.50
2019-04-21T20:28:57.181Z,20.20
2019-04-21T20:37:52.480Z,20.40
2019-04-21T20:43:47.151Z,20.40
2019-04-21T20:46:25.366Z,20.40
2019-04-21T20:49:23.089Z,20.40
2019-04-21T20:52:08.133Z,20.40
2019-04-21T20:54:28.838Z,20.40
2019-04-21T20:57:02.714Z,20.40
2019-04-21T20:59:29.316Z,20.40
2019-04-21T21:02:01.574Z,20.40
2019-04-21T21:04:28.056Z,20.30
2019-04-21T21:07:06.175Z,20.40
2019-04-21T21:09:35.601Z,20.30
2019-04-21T21:12:16.106Z,20.30
2019-04-21T21:14:36.339Z,20.30
2019-04-21T21:17:13.121Z,20.30
2019-04-21T21:19:39.763Z,20.30
2019-04-21T21:22:01.679Z,20.30
2019-04-21T21:24:47.403Z,20.30
2019-04-21T21:27:09.761Z,20.30
2019-04-21T21:29:40.411Z,20.30
2019-04-21T21:32:16.788Z,20.30
2019-04-21T21:34:47.352Z,20.30
2019-04-21T21:37:21.316Z,20.30
2019-04-21T21:39:53.442Z,20.30
2019-04-21T21:42:02.678Z,20.30
2019-04-21T21:44:31.889Z,20.30
2019-04-21T21:47:17.176Z,20.30
2019-04-21T21:49:43.312Z,20.20
2019-04-21T21:52:12.827Z,20.20
2019-04-21T21:54:33.902Z,20.20
2019-04-21T21:57:03.159Z,20.20
2019-04-21T21:59:36.613Z,20.20
2019-04-21T22:02:05.107Z,20.20
2019-04-21T22:04:37.294Z,20.20
2019-04-21T22:07:10.214Z,20.30
2019-04-21T22:09:36.513Z,20.20
2019-04-21T22:12:08.251Z,20.20
2019-04-21T22:14:41.552Z,20.20
2019-04-21T22:17:23.791Z,20.20
2019-04-21T22:20:05.375Z,20.20
2019-04-21T22:22:23.222Z,20.20
2019-04-21T22:24:53.505Z,20.10
2019-04-21T22:27:11.083Z,20.10
2019-04-21T22:29:45.379Z,20.20
2019-04-21T22:32:17.449Z,20.10
2019-04-21T22:34:48.626Z,20.20
2019-04-21T22:37:28.724Z,20.10
2019-04-21T22:39:57.880Z,20.10
2019-04-21T22:42:21.131Z,20.10
2019-04-21T22:44:46.253Z,20.10
2019-04-21T22:47:22.397Z,20.10
2019-04-21T22:49:46.538Z,20.10
2019-04-21T22:52:20.409Z,20.00
2019-04-21T22:54:47.271Z,20.10
2019-04-21T22:57:21.424Z,20.10
2019-04-21T22:59:55.230Z,20.10
2019-04-21T23:02:24.695Z,20.10
2019-04-21T23:04:55.878Z,20.10
2019-04-21T23:07:23.781Z,20.10
2019-04-21T23:09:51.481Z,20.00
2019-04-21T23:12:27.690Z,20.00
2019-04-21T23:14:58.575Z,20.00
2019-04-21T23:17:37.859Z,20.00
2019-04-21T23:20:14.520Z,20.00
2019-04-21T23:22:51.307Z,20.00
2019-04-21T23:25:15.201Z,20.00
2019-04-21T23:27:47.988Z,20.00
2019-04-21T23:30:20.144Z,20.00
2019-04-21T23:32:35.969Z,20.00
2019-04-21T23:35:09.210Z,20.00
2019-04-21T23:37:32.767Z,20.00
2019-04-21T23:40:06.046Z,20.00
2019-04-21T23:42:35.058Z,20.00
2019-04-21T23:45:01.768Z,20.00
2019-04-21T23:47:44.359Z,20.00
2019-04-21T23:50:15.974Z,20.00
2019-04-21T23:52:33.292Z,20.00
2019-04-21T23:55:03.245Z,20.00
2019-04-21T23:57:39.685Z,20.00
